Impacts METAR Board
IDs:

KDFW - Dallas-Ft Worth Intl, TX, US

Updated at: 2200 UTC 21 May 2022
Potential Impact None Slight Moderate High
Time 21/10Z 21/11Z 21/12Z 21/13Z 21/14Z 21/15Z 21/16Z 21/17Z 21/18Z 21/19Z 21/20Z 21/21Z 21/22Z
Temp78 78 79 80 81 81 83 87 89 91 88 84 79
Dewpt71 71 71 71 70 70 72 69 69 68 67 65 62
Altim29.71 29.71 29.74 29.76 29.83 29.84 29.84 29.85 29.86 29.85 29.87 29.89 29.89
VIS10 8 6 7 7 8 7 9 10 10 10 10 10
CIG25 27 25 23 28 140 110 -- 140 60 -- -- --
CoverBKNBKNBKNBKNOVCBKNBKNSCTBKNBKNSCTFEWFEW
FltCatMVFRMVFRMVFRMVFRMVFRVFRVFRVFRVFRVFRVFRVFRVFR
WX----HZ--------------------
WDir170180170180220190170180220034010340
WSpd12 16 13 14 11 10 8 15 8 3 14 17 18
WGst22 24 19 -- -- -- -- 22 -- -- -- 26 25
Raw hourly METARs
KDFW 210953Z 17012G22KT 10SM SCT019 BKN025 26/22 A2971 RMK AO2 PK WND 19029/0909 SLP050 T02560217
KDFW 211053Z 18016G24KT 8SM FEW018 BKN027 26/22 A2971 RMK AO2 PK WND 17026/1035 SLP051 T02560217
KDFW 211153Z 17013G19KT 6SM HZ SCT019 BKN025 26/22 A2974 RMK AO2 SLP059 T02610217 10283 20256 53014
KDFW 211253Z 18014KT 7SM BKN023 27/22 A2976 RMK AO2 SLP069 T02670217
KDFW 211353Z 22011KT 7SM SCT023 BKN028 OVC036 27/21 A2983 RMK AO2 PRESRR SLP093 T02720211
KDFW 211503Z 19010KT 8SM FEW036 SCT047 BKN140 BKN250 27/21 A2984 RMK AO2 CB DSNT E MOV NE T02720211 $
KDFW 211553Z 17008KT 7SM SCT045 BKN110 BKN140 BKN250 28/22 A2984 RMK AO2 RAB27E36 SLP096 P0000 T02830222 $
KDFW 211653Z 18015G22KT 9SM FEW045 FEW140 SCT250 31/21 A2985 RMK AO2 SLP100 T03060206 $
KDFW 211753Z 22008KT 10SM FEW041 SCT050 BKN140 BKN250 32/21 A2986 RMK AO2 SLP101 60000 T03170206 10317 20261 53006 $
KDFW 211853Z VRB03KT 10SM SCT042 BKN060 BKN250 33/20 A2985 RMK AO2 SLP098 T03280200 $
KDFW 211953Z 34014KT 10SM FEW055 SCT250 31/19 A2987 RMK AO2 WSHFT 1905 SLP105 WSHFT 1904 FROPA T03110194 $
KDFW 212053Z 01017G26KT 10SM FEW055 29/18 A2989 RMK AO2 PK WND 35027/2035 SLP110 TCU DSNT S T02890183 53009 $
KDFW 212153Z 34018G25KT 10SM FEW250 26/17 A2989 RMK AO2 PK WND 36027/2106 SLP113 CB DSNT S-SW MOV NE TCU DSNT NE-SE-S T02610167 $



Page loaded:  22:02 UTC  |   03:02 PM Pacific  |   04:02 PM Mountain  |   05:02 PM Central  |   06:02 PM Eastern

 

ADVISORIES

FORECASTS

FORECASTS

OBSERVATIONS

USER TOOLS

ABOUT US